Accueil
METAR-TAF:

METAR-TAF

Aéroports :

St Athan, Pays de Galles

latitude: 51-24N, longitude: 003-26W, altitude: 50 m

Observation

Le bulletin a été fait il y a 1 heure et 5 minutes, à 23:50 UTC
Vent 19 kt de ouest
Température 10°C
Humidité 100%
Pression 1015 hPa
Visibilité 10 km ou plus

METAR: EGDX 232350Z AUTO 26019KT 9999 OVC003/// 10/10 Q1015

Heure: 01:55 (00:55 UTC)

Prévision

Le bulletin a été fait il y a 11 heures et 25 minutes, à 13:30 UTC
Prévision valable du 23 à 15 UTC au 23 à 18 UTC
Vent 16 kt de ouest avec des rafales jusqu'à 26 kt
Visibilité 10 km ou plus
Quelques nuages à une hauteur de 1200 ft
Nuages épars à une hauteur de 2500 ft
Evoluant progressivement
du 23 à 16 UTC au 23 à 18 UTC
Nuages fragmentés à une hauteur de 1500 ft

TAF: EGDX 231330Z 2315/2318 27016G26KT 9999 FEW012 SCT025 BECMG 2316/2318 BKN015

Observations et prévisions météorologiques de plus de 4000 aéroports (messages METAR et TAF).

Les stations disponibles sont représentées par des disques jaunes et rouges sur la carte.

Passer la souris dessus pour voir le nom de la station.

Cliquer dessus pour voir les observations et prévisions météorologiques.

Pour changer de carte: cliquez sur les boutons verts avec une croix noire pour zoomer, sur le bouton vert avec un tiret pour effectuer un zoom arrière, ou sur les flèches vertes pour les cartes adjacentes.


METAR-TAF: